Terminal Aerodrome Forecast
Issued by NWS

Home | Current Version | Previous Version | Text Only | Print | Product List | Glossary On
Versions: 1 2 3 4 5 6 7 8 9 10 11 12 13 14 15 16
000
FTUS42 KMLB 080520
TAFSFB
TAF
KSFB 080520Z 0806/0906 VRB02KT P6SM SCT250
     FM081400 16006KT P6SM SCT030 SCT250
     FM081800 14008KT P6SM VCTS SCT040CB
     FM090000 11005KT P6SM FEW100 SCT150 BKN250=

USA.gov is the U.S. government's official web portal to all federal, state and local government web resources and services.